createdAt,value
2019-02-27T00:00:55.994Z,71.67
2019-02-27T00:03:29.635Z,71.86
2019-02-27T00:06:01.940Z,72.49
2019-02-27T00:08:34.643Z,72.65
2019-02-27T00:11:06.864Z,72.74
2019-02-27T00:13:38.637Z,73.40
2019-02-27T00:16:11.166Z,73.43
2019-02-27T00:18:43.840Z,73.45
2019-02-27T00:21:15.522Z,73.66
2019-02-27T00:23:46.308Z,73.55
2019-02-27T00:26:18.220Z,73.79
2019-02-27T00:28:49.300Z,74.05
2019-02-27T00:31:20.164Z,73.85
2019-02-27T00:33:52.703Z,74.28
2019-02-27T00:36:25.432Z,74.91
2019-02-27T00:38:57.918Z,74.83
2019-02-27T00:41:29.263Z,75.23
2019-02-27T00:44:02.898Z,76.02
2019-02-27T00:46:34.746Z,76.38
2019-02-27T00:49:05.692Z,76.70
2019-02-27T00:51:36.635Z,76.46
2019-02-27T00:54:08.958Z,77.27
2019-02-27T00:56:40.070Z,77.58
2019-02-27T00:59:11.665Z,77.84
2019-02-27T01:01:47.261Z,78.40
2019-02-27T01:04:16.721Z,78.49
2019-02-27T01:06:48.373Z,78.62
2019-02-27T01:09:19.546Z,78.67
2019-02-27T01:11:51.817Z,78.62
2019-02-27T01:14:24.039Z,78.92
2019-02-27T01:16:55.315Z,79.08
2019-02-27T01:19:26.867Z,79.18
2019-02-27T01:21:58.538Z,79.65
2019-02-27T01:24:29.597Z,79.99
2019-02-27T01:27:04.213Z,79.97
2019-02-27T01:29:35.402Z,80.21
2019-02-27T01:32:06.935Z,80.54
2019-02-27T01:34:38.952Z,80.43
2019-02-27T01:37:09.789Z,81.27
2019-02-27T01:39:44.115Z,81.31
2019-02-27T01:42:16.170Z,80.94
2019-02-27T01:44:48.484Z,80.83
2019-02-27T01:47:20.162Z,81.18
2019-02-27T01:49:52.792Z,81.50
2019-02-27T01:52:25.344Z,81.10
2019-02-27T01:54:58.035Z,82.02
2019-02-27T01:57:29.369Z,82.36
2019-02-27T02:00:01.234Z,82.35
2019-02-27T02:02:32.300Z,82.40
2019-02-27T02:05:03.049Z,82.32
2019-02-27T02:07:35.337Z,81.96
2019-02-27T02:10:06.819Z,81.39
2019-02-27T02:12:39.062Z,81.30
2019-02-27T02:16:03.120Z,81.54
2019-02-27T02:19:10.822Z,81.68
2019-02-27T02:22:19.590Z,81.97
2019-02-27T02:25:11.324Z,82.40
2019-02-27T02:28:14.718Z,82.39
2019-02-27T02:31:23.957Z,82.42
2019-02-27T02:34:43.320Z,81.65
2019-02-27T02:37:47.171Z,82.10
2019-02-27T02:41:09.405Z,81.78
2019-02-27T02:44:11.251Z,82.25
2019-02-27T02:47:12.699Z,82.09
2019-02-27T02:50:31.243Z,82.27
2019-02-27T02:53:48.774Z,81.89
2019-02-27T02:56:37.858Z,82.26
2019-02-27T02:59:46.895Z,82.43
2019-02-27T03:02:29.953Z,81.99
2019-02-27T03:05:42.426Z,82.42
2019-02-27T03:08:40.601Z,82.03
2019-02-27T03:11:54.806Z,82.20
2019-02-27T03:15:22.164Z,82.43
2019-02-27T03:18:20.112Z,82.60
2019-02-27T03:21:04.044Z,82.67
2019-02-27T03:23:53.812Z,83.04
2019-02-27T03:26:51.612Z,82.94
2019-02-27T03:30:03.120Z,83.36
2019-02-27T03:33:23.089Z,83.60
2019-02-27T03:36:36.057Z,83.50
2019-02-27T03:39:39.565Z,83.78
2019-02-27T03:42:21.756Z,83.40
2019-02-27T03:45:31.825Z,83.25
2019-02-27T03:48:28.460Z,82.98
2019-02-27T03:51:34.884Z,83.00
2019-02-27T03:54:32.930Z,82.85
2019-02-27T03:57:26.904Z,82.93
2019-02-27T04:00:21.105Z,82.94
2019-02-27T04:03:32.563Z,82.85
2019-02-27T04:06:28.373Z,82.88
2019-02-27T04:09:00.099Z,82.85
2019-02-27T04:11:31.527Z,82.79
2019-02-27T04:14:05.024Z,82.77
2019-02-27T04:16:37.887Z,82.81
2019-02-27T04:19:07.786Z,82.97
2019-02-27T04:21:38.636Z,83.35
2019-02-27T04:24:10.149Z,83.26
2019-02-27T04:26:42.634Z,83.63
2019-02-27T04:29:13.741Z,83.42
2019-02-27T04:31:44.894Z,82.61
2019-02-27T04:34:15.718Z,82.15
2019-02-27T04:36:47.782Z,81.66
2019-02-27T04:39:18.640Z,81.47
2019-02-27T04:41:49.551Z,81.50
2019-02-27T04:44:22.081Z,81.22
2019-02-27T04:46:55.085Z,80.07
2019-02-27T04:49:26.782Z,79.33
2019-02-27T04:51:57.868Z,79.66
2019-02-27T04:54:28.605Z,79.77
2019-02-27T04:56:59.633Z,79.91
2019-02-27T04:59:30.933Z,79.56
2019-02-27T05:02:03.337Z,79.36
2019-02-27T05:04:35.807Z,79.54
2019-02-27T05:07:06.951Z,79.73
2019-02-27T05:09:39.538Z,79.17
2019-02-27T05:12:10.303Z,79.44
2019-02-27T05:14:42.706Z,80.01
2019-02-27T05:17:13.837Z,81.22
2019-02-27T05:19:44.857Z,81.81
2019-02-27T05:22:16.351Z,82.40
2019-02-27T05:24:47.607Z,82.31
2019-02-27T05:27:19.058Z,81.95
2019-02-27T05:29:50.049Z,82.58
2019-02-27T05:32:21.304Z,82.89
2019-02-27T05:34:52.576Z,82.51
2019-02-27T05:37:23.999Z,83.27
2019-02-27T05:39:55.517Z,83.66
2019-02-27T05:42:27.688Z,83.89
2019-02-27T05:44:59.401Z,83.97
2019-02-27T05:47:33.152Z,84.36
2019-02-27T05:50:05.959Z,85.78
2019-02-27T05:52:37.193Z,86.61
2019-02-27T05:55:09.178Z,85.47
2019-02-27T05:57:40.169Z,85.94
2019-02-27T06:00:17.473Z,86.16
2019-02-27T06:02:48.323Z,86.30
2019-02-27T06:05:19.151Z,86.80
2019-02-27T06:07:49.969Z,86.79
2019-02-27T06:10:23.431Z,87.17
2019-02-27T06:12:54.608Z,86.60
2019-02-27T06:15:28.624Z,86.60
2019-02-27T06:17:58.902Z,87.07
2019-02-27T06:20:30.013Z,86.77
2019-02-27T06:23:04.155Z,86.77
2019-02-27T06:25:34.366Z,86.35
2019-02-27T06:28:06.405Z,86.49
2019-02-27T06:30:37.728Z,86.95
2019-02-27T06:33:11.593Z,87.45
2019-02-27T06:35:43.741Z,87.56
2019-02-27T06:38:15.148Z,87.90
2019-02-27T06:40:46.876Z,87.77
2019-02-27T06:43:18.089Z,87.95
2019-02-27T06:45:49.747Z,87.77
2019-02-27T06:48:21.661Z,87.97
2019-02-27T06:50:52.775Z,88.02
2019-02-27T06:53:23.821Z,88.07
2019-02-27T06:55:55.412Z,87.86
2019-02-27T06:58:26.790Z,87.19
2019-02-27T07:00:57.934Z,86.55
2019-02-27T07:03:29.854Z,86.60
2019-02-27T07:06:02.263Z,86.48
2019-02-27T07:08:37.874Z,86.55
2019-02-27T07:11:10.815Z,86.30
2019-02-27T07:13:39.776Z,86.57
2019-02-27T07:16:11.406Z,85.49
2019-02-27T07:18:42.654Z,84.37
2019-02-27T07:21:14.250Z,82.99
2019-02-27T07:23:45.681Z,81.21
2019-02-27T07:26:18.720Z,78.47
2019-02-27T07:28:49.733Z,77.90
2019-02-27T07:31:23.377Z,78.34
2019-02-27T07:33:54.243Z,77.69
2019-02-27T07:36:26.290Z,77.23
2019-02-27T07:38:58.714Z,76.96
2019-02-27T07:41:29.945Z,76.75
2019-02-27T07:44:02.467Z,77.36
2019-02-27T07:46:35.499Z,77.39
2019-02-27T07:49:06.220Z,77.67
2019-02-27T07:51:37.216Z,77.82
2019-02-27T07:54:08.931Z,77.12
2019-02-27T07:56:39.675Z,76.93
2019-02-27T07:59:11.631Z,76.28
2019-02-27T08:01:44.341Z,76.01
2019-02-27T08:04:19.035Z,75.85
2019-02-27T08:06:48.691Z,75.25
2019-02-27T08:09:19.692Z,74.15
2019-02-27T08:11:51.481Z,72.81
2019-02-27T08:14:23.235Z,71.74
2019-02-27T08:16:57.915Z,70.34
2019-02-27T08:19:28.592Z,68.95
2019-02-27T08:21:59.399Z,70.35
2019-02-27T08:24:31.199Z,71.69
2019-02-27T08:27:03.124Z,72.85
2019-02-27T08:29:34.678Z,72.18
2019-02-27T08:32:05.968Z,72.12
2019-02-27T08:34:37.498Z,71.90
2019-02-27T08:37:08.914Z,72.44
2019-02-27T08:39:39.691Z,72.60
2019-02-27T08:42:11.019Z,72.62
2019-02-27T08:44:43.038Z,72.94
2019-02-27T08:47:15.841Z,72.59
2019-02-27T08:49:47.823Z,72.82
2019-02-27T08:52:19.364Z,71.39
2019-02-27T08:54:51.236Z,71.25
2019-02-27T08:57:22.779Z,70.82
2019-02-27T08:59:54.366Z,70.54
2019-02-27T09:02:29.229Z,70.18
2019-02-27T09:04:59.438Z,69.67
2019-02-27T09:07:30.431Z,68.65
2019-02-27T09:10:02.244Z,69.46
2019-02-27T09:12:33.667Z,69.53
2019-02-27T09:15:04.530Z,69.58
2019-02-27T09:17:36.721Z,69.08
2019-02-27T09:20:09.419Z,68.59
2019-02-27T09:22:40.540Z,67.26
2019-02-27T09:25:12.261Z,68.28
2019-02-27T09:27:43.095Z,67.92
2019-02-27T09:30:15.451Z,67.69
2019-02-27T09:32:46.810Z,67.43
2019-02-27T09:35:18.283Z,67.05
2019-02-27T09:37:51.397Z,65.89
2019-02-27T09:40:22.575Z,64.88
2019-02-27T09:42:53.895Z,61.65
2019-02-27T09:45:27.799Z,62.18
2019-02-27T09:47:59.953Z,64.62
2019-02-27T09:50:36.586Z,64.55
2019-02-27T09:53:07.428Z,64.23
2019-02-27T09:55:39.283Z,63.90
2019-02-27T09:58:11.529Z,64.21
2019-02-27T10:00:48.130Z,64.69
2019-02-27T10:03:21.167Z,63.01
2019-02-27T10:05:53.016Z,62.73
2019-02-27T10:08:25.534Z,61.26
2019-02-27T10:10:57.741Z,61.24
2019-02-27T10:13:29.012Z,61.15
2019-02-27T10:16:01.384Z,60.63
2019-02-27T10:18:32.957Z,59.78
2019-02-27T10:21:04.501Z,59.01
2019-02-27T10:23:35.945Z,57.91
2019-02-27T10:26:07.734Z,58.13
2019-02-27T10:28:39.847Z,59.06
2019-02-27T10:31:12.730Z,58.89
2019-02-27T10:33:44.113Z,57.28
2019-02-27T10:36:16.330Z,57.67
2019-02-27T10:38:47.638Z,57.76
2019-02-27T10:41:19.225Z,56.35
2019-02-27T10:43:50.748Z,56.83
2019-02-27T10:46:23.673Z,55.60
2019-02-27T10:48:55.624Z,55.31
2019-02-27T10:51:27.392Z,53.90
2019-02-27T10:54:02.320Z,54.58
2019-02-27T10:56:32.055Z,54.35
2019-02-27T10:59:03.821Z,53.69
2019-02-27T11:01:36.368Z,54.11
2019-02-27T11:04:08.624Z,52.54
2019-02-27T11:06:41.029Z,53.36
2019-02-27T11:09:24.345Z,53.46
2019-02-27T11:11:56.837Z,53.43
2019-02-27T11:14:31.711Z,53.00
2019-02-27T11:17:03.388Z,51.80
2019-02-27T11:19:34.989Z,51.82
2019-02-27T11:22:07.596Z,51.00
2019-02-27T11:24:39.208Z,49.63
2019-02-27T11:27:10.233Z,49.75
2019-02-27T11:29:41.557Z,49.12
2019-02-27T11:32:14.273Z,48.21
2019-02-27T11:34:48.488Z,49.03
2019-02-27T11:37:19.381Z,48.72
2019-02-27T11:39:50.231Z,47.59
2019-02-27T11:42:21.583Z,48.23
2019-02-27T11:44:53.521Z,48.89
2019-02-27T11:47:24.973Z,47.93
2019-02-27T11:49:57.858Z,49.03
2019-02-27T11:52:29.008Z,49.03
2019-02-27T11:55:00.219Z,48.11
2019-02-27T11:57:32.000Z,46.20
2019-02-27T12:00:04.109Z,46.09
2019-02-27T12:02:37.914Z,45.53
2019-02-27T12:05:11.279Z,44.91
2019-02-27T12:07:42.156Z,45.02
2019-02-27T12:10:16.370Z,43.93
2019-02-27T12:12:48.047Z,43.60
2019-02-27T12:15:19.615Z,43.32
2019-02-27T12:17:51.505Z,42.90
2019-02-27T12:20:23.725Z,43.21
2019-02-27T12:22:54.790Z,42.95
2019-02-27T12:25:29.010Z,42.54
2019-02-27T12:27:59.133Z,42.33
2019-02-27T12:30:30.046Z,41.71
2019-02-27T12:33:02.682Z,40.90
2019-02-27T12:35:34.229Z,40.17
2019-02-27T12:38:08.271Z,39.73
2019-02-27T12:40:39.428Z,39.90
2019-02-27T12:43:10.212Z,39.77
2019-02-27T12:45:41.621Z,40.97
2019-02-27T12:48:14.540Z,40.24
2019-02-27T12:50:45.965Z,40.17
2019-02-27T12:53:20.630Z,39.80
2019-02-27T12:55:50.146Z,38.90
2019-02-27T12:58:24.372Z,39.62
2019-02-27T13:00:55.763Z,39.12
2019-02-27T13:03:28.856Z,37.78
2019-02-27T13:06:00.887Z,39.14
2019-02-27T13:08:32.987Z,37.66
2019-02-27T13:11:05.277Z,38.56
2019-02-27T13:13:38.112Z,38.14
2019-02-27T13:16:14.205Z,37.20
2019-02-27T13:18:43.168Z,37.53
2019-02-27T13:21:20.099Z,38.74
2019-02-27T13:23:48.900Z,37.13
2019-02-27T13:26:19.710Z,37.26
2019-02-27T13:28:51.282Z,36.92
2019-02-27T13:31:23.274Z,37.45
2019-02-27T13:33:55.973Z,36.51
2019-02-27T13:36:27.792Z,35.11
2019-02-27T13:38:59.436Z,36.51
2019-02-27T13:41:30.175Z,34.70
2019-02-27T13:44:02.189Z,32.62
2019-02-27T13:46:34.035Z,33.86
2019-02-27T13:49:05.541Z,34.94
2019-02-27T13:51:40.225Z,35.34
2019-02-27T13:54:11.684Z,32.93
2019-02-27T13:56:42.840Z,32.68
2019-02-27T13:59:15.249Z,33.75
2019-02-27T14:01:46.916Z,34.19
2019-02-27T14:04:21.879Z,34.22
2019-02-27T14:06:53.122Z,33.38
2019-02-27T14:09:24.709Z,36.14
2019-02-27T14:11:58.741Z,41.08
2019-02-27T14:14:29.834Z,31.58
2019-02-27T14:17:02.214Z,31.72
2019-02-27T14:19:33.698Z,32.55
2019-02-27T14:22:07.513Z,32.95
2019-02-27T14:24:39.553Z,30.59
2019-02-27T14:27:14.553Z,28.76
2019-02-27T14:29:45.448Z,29.12
2019-02-27T14:32:17.039Z,30.88
2019-02-27T14:34:48.799Z,32.10
2019-02-27T14:37:19.572Z,32.06
2019-02-27T14:39:52.008Z,33.00
2019-02-27T14:42:23.592Z,32.61
2019-02-27T14:44:55.281Z,31.16
2019-02-27T14:47:26.128Z,31.63
2019-02-27T14:49:59.324Z,30.69
2019-02-27T14:52:31.032Z,29.81
2019-02-27T14:55:03.502Z,31.24
2019-02-27T14:57:34.753Z,31.10
2019-02-27T15:00:07.379Z,30.54
2019-02-27T15:02:38.308Z,30.79
2019-02-27T15:05:09.243Z,31.12
2019-02-27T15:07:40.168Z,30.69
2019-02-27T15:10:11.849Z,30.80
2019-02-27T15:12:42.848Z,31.65
2019-02-27T15:15:16.725Z,31.53
2019-02-27T15:17:47.795Z,31.29
2019-02-27T15:20:18.892Z,31.93
2019-02-27T15:22:52.447Z,32.69
2019-02-27T15:25:22.956Z,31.62
2019-02-27T15:27:58.263Z,32.23
2019-02-27T15:30:27.668Z,33.68
2019-02-27T15:33:03.587Z,33.67
2019-02-27T15:35:31.361Z,33.66
2019-02-27T15:38:02.127Z,33.95
2019-02-27T15:40:33.188Z,34.83
2019-02-27T15:43:10.946Z,34.62
2019-02-27T15:45:36.663Z,35.18
2019-02-27T15:48:07.696Z,36.63
2019-02-27T15:50:38.546Z,36.71
2019-02-27T15:53:14.513Z,35.94
2019-02-27T15:55:42.132Z,38.50
2019-02-27T15:58:13.188Z,38.67
2019-02-27T16:00:45.175Z,39.40
2019-02-27T16:03:16.620Z,40.51
2019-02-27T16:05:47.630Z,41.13
2019-02-27T16:08:20.202Z,43.02
2019-02-27T16:10:54.798Z,43.82
2019-02-27T16:13:23.749Z,45.18
2019-02-27T16:15:54.739Z,45.92
2019-02-27T16:18:25.831Z,45.50
2019-02-27T16:20:56.820Z,47.32
2019-02-27T16:23:27.662Z,47.73
2019-02-27T16:25:58.755Z,48.13
2019-02-27T16:28:29.891Z,48.50
2019-02-27T16:31:05.950Z,48.29
2019-02-27T16:33:34.019Z,48.68
2019-02-27T16:36:05.176Z,49.90
2019-02-27T16:38:36.624Z,50.36
2019-02-27T16:41:07.968Z,50.95
2019-02-27T16:43:38.746Z,52.41
2019-02-27T16:46:09.566Z,52.39
2019-02-27T16:48:40.339Z,52.66
2019-02-27T16:51:11.308Z,52.02
2019-02-27T16:53:43.245Z,53.21
2019-02-27T16:56:14.083Z,53.21
2019-02-27T16:58:44.904Z,54.12
2019-02-27T17:01:18.847Z,54.00
2019-02-27T17:03:59.416Z,54.20
2019-02-27T17:06:22.438Z,54.68
2019-02-27T17:08:53.542Z,53.69
2019-02-27T17:11:24.337Z,55.17
2019-02-27T17:13:57.721Z,55.38
2019-02-27T17:16:28.517Z,56.84
2019-02-27T17:19:01.846Z,57.66
2019-02-27T17:21:32.422Z,59.05
2019-02-27T17:24:03.440Z,60.01
2019-02-27T17:26:35.321Z,58.44
2019-02-27T17:29:07.013Z,57.86
2019-02-27T17:31:37.896Z,58.47
2019-02-27T17:34:13.496Z,59.58
2019-02-27T17:36:42.162Z,58.92
2019-02-27T17:39:13.687Z,60.17
2019-02-27T17:41:45.409Z,60.10
2019-02-27T17:44:16.465Z,60.52
2019-02-27T17:46:47.688Z,61.59
2019-02-27T17:49:18.734Z,62.98
2019-02-27T17:51:49.657Z,63.39
2019-02-27T17:54:21.308Z,63.92
2019-02-27T17:56:53.707Z,64.01
2019-02-27T17:59:26.464Z,64.21
2019-02-27T18:01:58.745Z,63.89
2019-02-27T18:04:30.193Z,64.15
2019-02-27T18:07:02.619Z,64.93
2019-02-27T18:09:34.104Z,64.98
2019-02-27T18:12:06.180Z,65.24
2019-02-27T18:14:37.509Z,65.33
2019-02-27T18:17:09.024Z,64.58
2019-02-27T18:19:40.051Z,64.50
2019-02-27T18:22:14.687Z,64.67
2019-02-27T18:24:45.466Z,64.88
2019-02-27T18:27:16.788Z,64.71
2019-02-27T18:29:48.147Z,65.33
2019-02-27T18:32:19.420Z,66.29
2019-02-27T18:34:54.631Z,66.36
2019-02-27T18:37:25.395Z,65.41
2019-02-27T18:39:56.791Z,66.37
2019-02-27T18:42:29.647Z,65.69
2019-02-27T18:45:02.772Z,65.63
2019-02-27T18:47:35.264Z,66.57
2019-02-27T18:50:06.910Z,66.72
2019-02-27T18:52:39.890Z,66.01
2019-02-27T18:55:11.277Z,65.90
2019-02-27T18:57:46.000Z,66.13
2019-02-27T19:00:19.164Z,65.58
2019-02-27T19:02:53.267Z,65.51
2019-02-27T19:05:24.988Z,65.32
2019-02-27T19:07:57.006Z,65.42
2019-02-27T19:10:28.294Z,65.99
2019-02-27T19:13:01.046Z,66.43
2019-02-27T19:15:34.115Z,67.16
2019-02-27T19:18:06.550Z,67.48
2019-02-27T19:20:39.220Z,66.67
2019-02-27T19:23:10.415Z,67.30
2019-02-27T19:25:43.347Z,66.80
2019-02-27T19:28:14.929Z,66.47
2019-02-27T19:30:47.507Z,66.62
2019-02-27T19:33:19.634Z,66.94
2019-02-27T19:35:55.860Z,67.36
2019-02-27T19:38:26.331Z,67.86
2019-02-27T19:40:57.519Z,67.78
2019-02-27T19:43:29.648Z,67.62
2019-02-27T19:46:02.303Z,67.80
2019-02-27T19:48:35.325Z,68.05
2019-02-27T19:51:08.063Z,68.47
2019-02-27T19:53:40.652Z,68.44
2019-02-27T19:56:12.800Z,68.99
2019-02-27T19:58:44.746Z,68.65
2019-02-27T20:01:17.831Z,68.23
2019-02-27T20:03:49.561Z,66.87
2019-02-27T20:06:21.215Z,65.78
2019-02-27T20:08:54.013Z,65.87
2019-02-27T20:11:26.472Z,66.18
2019-02-27T20:14:02.140Z,65.05
2019-02-27T20:16:33.211Z,65.49
2019-02-27T20:19:06.017Z,66.06
2019-02-27T20:21:37.068Z,65.52
2019-02-27T20:24:14.531Z,66.09
2019-02-27T20:26:44.478Z,65.84
2019-02-27T20:29:16.292Z,66.53
2019-02-27T20:31:47.225Z,67.10
2019-02-27T20:34:19.162Z,66.94
2019-02-27T20:36:50.462Z,66.55
2019-02-27T20:39:24.330Z,66.09
2019-02-27T20:41:56.838Z,65.51
2019-02-27T20:44:28.983Z,65.95
2019-02-27T20:47:00.461Z,65.33
2019-02-27T20:49:32.283Z,65.51
2019-02-27T20:52:03.826Z,66.04
2019-02-27T20:54:35.559Z,65.74
2019-02-27T20:57:08.943Z,65.58
2019-02-27T20:59:42.743Z,65.25
2019-02-27T21:02:18.725Z,65.55
2019-02-27T21:04:49.209Z,65.93
2019-02-27T21:07:22.416Z,64.98
2019-02-27T21:09:53.465Z,66.04
2019-02-27T21:12:25.648Z,66.18
2019-02-27T21:14:58.593Z,66.29
2019-02-27T21:17:29.864Z,65.94
2019-02-27T21:20:00.937Z,65.33
2019-02-27T21:22:33.028Z,65.87
2019-02-27T21:25:05.113Z,66.20
2019-02-27T21:27:38.439Z,65.65
2019-02-27T21:30:12.172Z,66.10
2019-02-27T21:32:43.338Z,66.27
2019-02-27T21:35:14.600Z,66.45
2019-02-27T21:37:45.836Z,67.14
2019-02-27T21:40:17.841Z,67.73
2019-02-27T21:42:50.821Z,67.99
2019-02-27T21:45:23.409Z,67.73
2019-02-27T21:47:56.135Z,67.16
2019-02-27T21:50:28.567Z,66.87
2019-02-27T21:53:00.311Z,67.22
2019-02-27T21:55:33.046Z,66.86
2019-02-27T21:58:04.371Z,66.08
2019-02-27T22:00:36.954Z,67.60
2019-02-27T22:03:09.684Z,67.24
2019-02-27T22:05:43.110Z,67.45
2019-02-27T22:08:16.191Z,67.79
2019-02-27T22:10:53.260Z,68.60
2019-02-27T22:13:28.885Z,68.29
2019-02-27T22:15:56.615Z,67.10
2019-02-27T22:18:28.251Z,66.85
2019-02-27T22:21:00.287Z,66.37
2019-02-27T22:23:33.958Z,65.91
2019-02-27T22:26:06.224Z,66.37
2019-02-27T22:28:37.387Z,65.26
2019-02-27T22:31:08.637Z,65.74
2019-02-27T22:33:39.803Z,66.04
2019-02-27T22:36:12.776Z,65.74
2019-02-27T22:38:45.966Z,65.25
2019-02-27T22:41:17.356Z,65.71
2019-02-27T22:43:48.317Z,64.42
2019-02-27T22:46:19.424Z,65.22
2019-02-27T22:48:51.810Z,65.83
2019-02-27T22:51:23.418Z,64.25
2019-02-27T22:53:54.855Z,63.58
2019-02-27T22:56:26.660Z,62.58
2019-02-27T22:58:59.396Z,62.66
2019-02-27T23:01:49.307Z,61.89
2019-02-27T23:04:19.432Z,63.06
2019-02-27T23:06:52.319Z,62.79
2019-02-27T23:09:25.664Z,61.69
2019-02-27T23:11:57.456Z,60.53
2019-02-27T23:14:29.469Z,59.06
2019-02-27T23:17:01.263Z,59.91
2019-02-27T23:19:35.011Z,59.62
2019-02-27T23:22:06.542Z,58.83
2019-02-27T23:24:38.048Z,58.30
2019-02-27T23:27:09.390Z,57.33
2019-02-27T23:29:40.692Z,56.57
2019-02-27T23:32:14.525Z,56.68
2019-02-27T23:34:46.920Z,55.99
2019-02-27T23:37:19.189Z,56.38
2019-02-27T23:39:50.420Z,57.67
2019-02-27T23:42:21.670Z,55.77
2019-02-27T23:44:54.156Z,56.70
2019-02-27T23:47:28.759Z,58.25
2019-02-27T23:49:59.994Z,58.29
2019-02-27T23:52:31.020Z,58.32
2019-02-27T23:55:02.362Z,59.13
2019-02-27T23:57:34.560Z,59.41
